createdAt,value
2022-10-22T00:02:21.769Z,36.50
2022-10-22T00:04:49.855Z,38.95
2022-10-22T00:07:22.253Z,44.20
2022-10-22T00:09:49.037Z,41.75
2022-10-22T00:12:15.980Z,38.58
2022-10-22T00:14:43.222Z,48.43
2022-10-22T00:17:11.466Z,40.22
2022-10-22T00:19:39.420Z,44.58
2022-10-22T00:22:06.810Z,38.28
2022-10-22T00:24:34.889Z,39.75
2022-10-22T00:27:02.088Z,47.27
2022-10-22T00:29:29.301Z,39.25
2022-10-22T00:34:28.597Z,32.88
2022-10-22T00:36:55.300Z,42.05
2022-10-22T00:39:24.872Z,34.03
2022-10-22T00:41:53.672Z,34.97
2022-10-22T00:44:57.728Z,33.03
2022-10-22T00:47:25.640Z,29.92
2022-10-22T00:49:54.020Z,33.95
2022-10-22T00:52:21.927Z,37.90
2022-10-22T00:54:49.136Z,34.50
2022-10-22T00:57:17.850Z,34.50
2022-10-22T00:59:44.705Z,34.60
2022-10-22T01:02:11.597Z,30.35
2022-10-22T01:04:38.444Z,34.13
2022-10-22T01:07:05.210Z,32.28
2022-10-22T01:09:43.084Z,33.13
2022-10-22T01:12:24.528Z,33.22
2022-10-22T01:15:03.209Z,33.08
2022-10-22T01:17:58.432Z,34.77
2022-10-22T01:20:51.400Z,32.40
2022-10-22T01:23:40.141Z,29.88
2022-10-22T01:29:11.539Z,36.53
2022-10-22T01:31:46.739Z,33.63
2022-10-22T01:34:17.019Z,30.55
2022-10-22T01:36:45.747Z,33.35
2022-10-22T01:39:15.334Z,34.95
2022-10-22T01:41:45.444Z,28.00
2022-10-22T01:44:27.093Z,30.43
2022-10-22T01:47:17.405Z,34.50
2022-10-22T01:49:49.791Z,41.10
2022-10-22T01:52:38.188Z,30.38
2022-10-22T01:55:23.649Z,33.58
2022-10-22T01:58:09.725Z,33.10
2022-10-22T02:00:40.295Z,35.33
2022-10-22T02:03:34.248Z,32.60
2022-10-22T02:06:06.012Z,30.63
2022-10-22T02:08:35.800Z,30.90
2022-10-22T02:11:03.920Z,33.93
2022-10-22T02:13:36.825Z,31.10
2022-10-22T02:16:06.809Z,32.60
2022-10-22T02:18:39.450Z,31.90
2022-10-22T02:23:35.840Z,33.93
2022-10-22T02:26:14.535Z,34.00
2022-10-22T02:28:57.123Z,32.42
2022-10-22T02:31:28.805Z,32.60
2022-10-22T02:34:00.289Z,29.38
2022-10-22T02:36:27.320Z,31.00
2022-10-22T02:38:54.977Z,30.02
2022-10-22T02:41:21.765Z,29.30
2022-10-22T02:43:55.193Z,29.83
2022-10-22T02:46:22.241Z,30.05
2022-10-22T02:48:49.304Z,29.53
2022-10-22T02:51:16.154Z,31.85
2022-10-22T02:53:42.937Z,36.25
2022-10-22T02:56:10.479Z,35.38
2022-10-22T02:58:37.223Z,33.78
2022-10-22T03:01:04.266Z,34.20
2022-10-22T03:03:31.042Z,34.75
2022-10-22T03:05:57.968Z,30.95
2022-10-22T03:08:24.745Z,31.27
2022-10-22T03:10:51.423Z,32.38
2022-10-22T03:13:18.212Z,32.97
2022-10-22T03:15:44.900Z,34.10
2022-10-22T03:18:11.720Z,33.95
2022-10-22T03:20:38.488Z,35.90
2022-10-22T03:23:05.657Z,36.38
2022-10-22T03:25:34.622Z,32.80
2022-10-22T03:28:08.321Z,33.58
2022-10-22T03:30:35.363Z,36.08
2022-10-22T03:33:02.295Z,33.63
2022-10-22T03:35:29.031Z,32.00
2022-10-22T03:37:55.856Z,35.40
2022-10-22T03:40:23.073Z,30.98
2022-10-22T03:42:49.830Z,31.73
2022-10-22T03:45:16.617Z,32.38
2022-10-22T03:47:43.591Z,33.78
2022-10-22T03:50:10.700Z,29.83
2022-10-22T03:52:39.082Z,29.33
2022-10-22T03:55:07.507Z,31.63
2022-10-22T03:57:34.539Z,30.10
2022-10-22T04:00:01.272Z,34.03
2022-10-22T04:02:28.056Z,28.63
2022-10-22T04:04:54.761Z,31.33
2022-10-22T04:07:21.487Z,29.40
2022-10-22T04:09:48.263Z,31.95
2022-10-22T04:12:14.992Z,31.15
2022-10-22T04:14:41.779Z,33.37
2022-10-22T04:17:08.501Z,33.00
2022-10-22T04:19:35.852Z,36.08
2022-10-22T04:22:02.556Z,35.17
2022-10-22T04:24:31.547Z,37.33
2022-10-22T04:26:58.365Z,33.60
2022-10-22T04:29:26.401Z,34.25
2022-10-22T04:31:53.204Z,35.30
2022-10-22T04:34:20.225Z,34.75
2022-10-22T04:36:46.990Z,32.88
2022-10-22T04:39:14.695Z,34.17
2022-10-22T04:41:41.381Z,34.70
2022-10-22T04:44:11.146Z,35.00
2022-10-22T04:46:42.807Z,35.15
2022-10-22T04:49:09.732Z,34.65
2022-10-22T04:51:36.717Z,31.33
2022-10-22T04:54:03.664Z,37.85
2022-10-22T04:56:32.026Z,33.78
2022-10-22T04:59:04.906Z,35.95
2022-10-22T05:01:41.663Z,39.03
2022-10-22T05:04:16.908Z,36.83
2022-10-22T05:06:44.044Z,33.30
2022-10-22T05:09:16.787Z,35.90
2022-10-22T05:11:51.342Z,30.75
2022-10-22T05:14:23.983Z,31.00
2022-10-22T05:16:51.632Z,37.20
2022-10-22T05:19:24.089Z,37.17
2022-10-22T05:21:53.016Z,37.22
2022-10-22T05:24:19.820Z,36.30
2022-10-22T05:26:49.752Z,37.28
2022-10-22T05:29:16.763Z,37.63
2022-10-22T05:31:43.504Z,40.08
2022-10-22T05:34:10.628Z,37.80
2022-10-22T05:36:37.636Z,36.13
2022-10-22T05:39:05.357Z,33.42
2022-10-22T05:41:33.476Z,39.23
2022-10-22T05:44:00.671Z,33.85
2022-10-22T05:46:29.756Z,37.22
2022-10-22T05:49:02.323Z,38.85
2022-10-22T05:51:31.636Z,40.63
2022-10-22T05:54:02.427Z,46.50
2022-10-22T05:56:32.047Z,44.20
2022-10-22T05:58:59.091Z,42.38
2022-10-22T06:01:28.475Z,33.17
2022-10-22T06:04:00.935Z,68.68
2022-10-22T06:06:35.577Z,43.23
2022-10-22T06:09:16.618Z,37.55
2022-10-22T06:11:43.668Z,39.00
2022-10-22T06:14:11.156Z,40.70
2022-10-22T06:16:38.115Z,37.90
2022-10-22T06:19:05.439Z,36.43
2022-10-22T06:21:32.692Z,35.92
2022-10-22T06:24:00.901Z,37.35
2022-10-22T06:26:28.092Z,37.17
2022-10-22T06:28:56.141Z,37.97
2022-10-22T06:31:24.164Z,36.53
2022-10-22T06:33:50.961Z,33.72
2022-10-22T06:36:20.570Z,41.47
2022-10-22T06:38:47.596Z,39.35
2022-10-22T06:41:16.660Z,37.03
2022-10-22T06:43:48.206Z,39.50
2022-10-22T06:46:20.743Z,37.75
2022-10-22T06:48:52.200Z,46.33
2022-10-22T06:51:19.578Z,45.03
2022-10-22T06:53:46.666Z,45.17
2022-10-22T06:56:16.418Z,45.40
2022-10-22T06:58:43.301Z,51.40
2022-10-22T07:01:14.684Z,43.40
2022-10-22T07:03:42.365Z,43.47
2022-10-22T07:06:12.789Z,40.92
2022-10-22T07:08:41.386Z,37.60
2022-10-22T07:11:10.769Z,37.70
2022-10-22T07:13:37.756Z,38.47
2022-10-22T07:16:06.115Z,38.70
2022-10-22T07:18:33.961Z,42.95
2022-10-22T07:21:00.817Z,36.60
2022-10-22T07:23:28.786Z,35.78
2022-10-22T07:28:23.917Z,35.92
2022-10-22T07:30:51.143Z,40.08
2022-10-22T07:33:17.940Z,38.20
2022-10-22T07:35:44.816Z,38.85
2022-10-22T07:38:11.631Z,40.58
2022-10-22T07:40:38.485Z,35.17
2022-10-22T07:43:05.349Z,36.35
2022-10-22T07:45:32.057Z,33.23
2022-10-22T07:48:00.568Z,32.97
2022-10-22T07:50:27.702Z,36.78
2022-10-22T07:52:56.117Z,32.33
2022-10-22T07:55:24.856Z,34.88
2022-10-22T07:57:51.704Z,34.90
2022-10-22T08:00:20.602Z,34.45
2022-10-22T08:02:49.941Z,37.45
2022-10-22T08:05:17.061Z,39.85
2022-10-22T08:07:44.165Z,37.90
2022-10-22T08:10:11.969Z,38.00
2022-10-22T08:12:39.451Z,37.63
2022-10-22T08:15:07.039Z,39.22
2022-10-22T08:17:33.860Z,41.00
2022-10-22T08:20:00.567Z,40.08
2022-10-22T08:22:27.708Z,35.80
2022-10-22T08:24:54.544Z,33.95
2022-10-22T08:27:21.939Z,42.60
2022-10-22T08:29:48.691Z,37.10
2022-10-22T08:32:15.440Z,38.00
2022-10-22T08:34:42.241Z,34.60
2022-10-22T08:37:10.529Z,38.63
2022-10-22T08:39:37.222Z,35.80
2022-10-22T08:42:35.576Z,36.58
2022-10-22T08:45:11.361Z,33.83
2022-10-22T08:48:03.968Z,34.17
2022-10-22T08:50:43.959Z,35.40
2022-10-22T08:53:17.423Z,37.03
2022-10-22T08:55:45.034Z,36.22
2022-10-22T08:58:25.852Z,36.25
2022-10-22T09:01:00.772Z,30.83
2022-10-22T09:03:27.803Z,33.55
2022-10-22T09:06:15.050Z,31.67
2022-10-22T09:08:43.869Z,32.97
2022-10-22T09:11:13.463Z,34.45
2022-10-22T09:13:42.625Z,35.07
2022-10-22T09:16:34.228Z,37.45
2022-10-22T09:19:12.118Z,32.67
2022-10-22T09:21:45.772Z,36.38
2022-10-22T09:24:21.193Z,31.77
2022-10-22T09:26:48.018Z,35.47
2022-10-22T09:29:23.223Z,32.40
2022-10-22T09:31:50.525Z,36.55
2022-10-22T09:34:21.750Z,31.20
2022-10-22T09:36:56.985Z,36.58
2022-10-22T09:39:31.756Z,30.87
2022-10-22T09:41:58.449Z,27.02
2022-10-22T09:44:25.211Z,24.63
2022-10-22T09:46:52.358Z,28.23
2022-10-22T09:49:22.768Z,23.58
2022-10-22T09:52:00.417Z,27.73
2022-10-22T09:54:33.247Z,24.63
2022-10-22T09:57:10.400Z,27.30
2022-10-22T09:59:38.884Z,28.88
2022-10-22T10:02:20.031Z,23.15
2022-10-22T10:04:57.548Z,23.03
2022-10-22T10:07:27.044Z,26.80
2022-10-22T10:09:54.749Z,26.35
2022-10-22T10:12:52.311Z,20.52
2022-10-22T10:15:34.016Z,23.90
2022-10-22T10:18:18.912Z,24.63
2022-10-22T10:20:50.054Z,26.70
2022-10-22T10:23:31.147Z,28.55
2022-10-22T10:26:20.298Z,23.92
2022-10-22T10:28:58.143Z,24.10
2022-10-22T10:31:55.532Z,23.63
2022-10-22T10:34:29.602Z,24.13
2022-10-22T10:37:21.371Z,18.52
2022-10-22T10:40:03.325Z,21.40
2022-10-22T10:42:54.594Z,23.83
2022-10-22T10:45:27.688Z,20.17
2022-10-22T10:48:28.488Z,11.52
2022-10-22T10:51:31.813Z,6.28
2022-10-22T10:54:05.273Z,6.22
2022-10-22T10:56:53.084Z,3.88
2022-10-22T10:59:25.803Z,5.30
2022-10-22T11:02:10.972Z,52.38
2022-10-22T11:05:13.128Z,6.53
2022-10-22T11:07:53.447Z,5.40
2022-10-22T11:10:22.431Z,4.05
2022-10-22T11:12:53.045Z,3.67
2022-10-22T11:15:49.542Z,4.43
2022-10-22T11:18:24.115Z,4.43
2022-10-22T11:21:18.686Z,3.20
2022-10-22T11:23:51.326Z,3.30
2022-10-22T11:26:38.996Z,3.23
2022-10-22T11:29:11.343Z,4.28
2022-10-22T11:31:39.072Z,3.22
2022-10-22T11:34:34.321Z,4.10
2022-10-22T11:37:03.914Z,5.93
2022-10-22T11:39:33.948Z,4.80
2022-10-22T11:42:06.056Z,3.33
2022-10-22T11:44:46.036Z,3.17
2022-10-22T11:47:20.260Z,3.25
2022-10-22T11:49:58.168Z,4.68
2022-10-22T11:52:33.084Z,2.80
2022-10-22T11:55:23.280Z,5.28
2022-10-22T11:57:50.098Z,3.80
2022-10-22T12:00:40.352Z,4.80
2022-10-22T12:03:18.988Z,3.72
2022-10-22T12:05:46.469Z,4.07
2022-10-22T12:08:20.719Z,4.35
2022-10-22T12:11:12.167Z,4.20
2022-10-22T12:14:19.917Z,9.18
2022-10-22T12:16:57.345Z,5.20
2022-10-22T12:19:26.745Z,13.63
2022-10-22T12:21:57.828Z,7.15
2022-10-22T12:24:26.182Z,8.85
2022-10-22T12:26:53.108Z,8.45
2022-10-22T12:29:26.710Z,4.55
2022-10-22T12:31:54.984Z,5.40
2022-10-22T12:34:24.242Z,4.75
2022-10-22T12:36:53.052Z,4.05
2022-10-22T12:39:26.823Z,5.15
2022-10-22T12:41:54.846Z,5.65
2022-10-22T12:44:21.758Z,4.67
2022-10-22T12:46:52.980Z,4.65
2022-10-22T12:49:29.385Z,4.35
2022-10-22T12:52:00.285Z,4.63
2022-10-22T12:54:32.108Z,4.85
2022-10-22T12:56:58.964Z,7.30
2022-10-22T12:59:29.247Z,5.50
2022-10-22T13:01:56.496Z,5.28
2022-10-22T13:04:26.655Z,6.97
2022-10-22T13:07:04.695Z,5.28
2022-10-22T13:09:57.388Z,6.47
2022-10-22T13:12:34.870Z,5.03
2022-10-22T13:15:20.062Z,5.13
2022-10-22T13:17:47.749Z,10.48
2022-10-22T13:20:23.432Z,27.17
2022-10-22T13:23:02.709Z,14.43
2022-10-22T13:25:31.566Z,5.25
2022-10-22T13:28:01.460Z,5.10
2022-10-22T13:30:33.598Z,8.02
2022-10-22T13:33:00.331Z,5.32
2022-10-22T13:35:32.139Z,5.53
2022-10-22T13:38:00.009Z,7.32
2022-10-22T13:40:27.619Z,9.40
2022-10-22T13:42:54.686Z,8.80
2022-10-22T13:45:21.396Z,11.82
2022-10-22T13:47:53.583Z,6.50
2022-10-22T13:50:21.293Z,7.22
2022-10-22T13:52:55.747Z,5.75
2022-10-22T13:55:29.142Z,5.55
2022-10-22T13:58:06.597Z,6.32
2022-10-22T14:00:33.372Z,5.10
2022-10-22T14:03:00.436Z,6.25
2022-10-22T14:05:27.480Z,5.18
2022-10-22T14:07:54.260Z,4.35
2022-10-22T14:10:23.416Z,6.28
2022-10-22T14:12:53.561Z,6.83
2022-10-22T14:15:24.121Z,6.68
2022-10-22T14:17:57.531Z,7.70
2022-10-22T14:20:31.071Z,6.20
2022-10-22T14:23:05.631Z,7.40
2022-10-22T14:25:32.596Z,6.10
2022-10-22T14:27:59.302Z,6.38
2022-10-22T14:30:26.766Z,7.30
2022-10-22T14:32:53.701Z,6.25
2022-10-22T14:35:24.216Z,6.85
2022-10-22T14:37:51.344Z,8.23
2022-10-22T14:40:20.800Z,7.15
2022-10-22T14:42:49.215Z,6.30
2022-10-22T14:45:23.206Z,6.15
2022-10-22T14:47:51.104Z,5.65
2022-10-22T14:50:18.925Z,5.90
2022-10-22T14:52:45.784Z,6.78
2022-10-22T14:55:15.179Z,9.95
2022-10-22T14:57:42.931Z,6.30
2022-10-22T15:00:13.480Z,10.40
2022-10-22T15:02:40.619Z,7.17
2022-10-22T15:05:08.122Z,7.88
2022-10-22T15:07:35.289Z,7.55
2022-10-22T15:10:02.248Z,6.57
2022-10-22T15:12:29.026Z,8.80
2022-10-22T15:14:55.754Z,7.90
2022-10-22T15:17:22.685Z,7.50
2022-10-22T15:19:49.492Z,7.78
2022-10-22T15:22:16.602Z,6.97
2022-10-22T15:24:46.487Z,9.27
2022-10-22T15:27:13.905Z,7.77
2022-10-22T15:29:42.048Z,8.45
2022-10-22T15:32:11.820Z,9.57
2022-10-22T15:34:39.957Z,9.35
2022-10-22T15:37:10.312Z,11.57
2022-10-22T15:39:40.681Z,11.03
2022-10-22T15:42:07.641Z,7.85
2022-10-22T15:44:34.608Z,8.68
2022-10-22T15:47:03.532Z,8.40
2022-10-22T15:49:30.453Z,12.55
2022-10-22T15:51:57.177Z,6.90
2022-10-22T15:54:28.546Z,10.98
2022-10-22T15:56:56.626Z,7.60
2022-10-22T15:59:23.724Z,8.50
2022-10-22T16:01:51.340Z,9.93
2022-10-22T16:04:18.141Z,9.97
2022-10-22T16:06:49.821Z,10.82
2022-10-22T16:09:20.694Z,10.82
2022-10-22T16:11:48.432Z,9.82
2022-10-22T16:14:18.730Z,12.60
2022-10-22T16:16:50.393Z,17.73
2022-10-22T16:19:19.620Z,13.00
2022-10-22T16:21:50.419Z,13.27
2022-10-22T16:24:17.925Z,16.02
2022-10-22T16:26:45.240Z,13.38
2022-10-22T16:29:12.734Z,13.63
2022-10-22T16:31:41.427Z,12.70
2022-10-22T16:34:08.997Z,11.18
2022-10-22T16:36:37.174Z,12.45
2022-10-22T16:39:04.991Z,10.75
2022-10-22T16:41:37.821Z,10.83
2022-10-22T16:44:08.075Z,17.73
2022-10-22T16:46:38.747Z,11.75
2022-10-22T16:49:06.876Z,9.57
2022-10-22T16:51:34.853Z,7.28
2022-10-22T16:54:02.413Z,5.50
2022-10-22T16:56:31.778Z,4.68
2022-10-22T16:58:58.564Z,5.65
2022-10-22T17:01:29.154Z,4.07
2022-10-22T17:03:58.650Z,5.57
2022-10-22T17:06:25.497Z,4.47
2022-10-22T17:08:52.694Z,4.28
2022-10-22T17:11:22.165Z,6.60
2022-10-22T17:13:52.577Z,4.20
2022-10-22T17:16:22.275Z,4.85
2022-10-22T17:18:49.328Z,7.00
2022-10-22T17:21:16.830Z,8.60
2022-10-22T17:23:43.782Z,7.70
2022-10-22T17:26:20.839Z,7.30
2022-10-22T17:28:48.741Z,7.45
2022-10-22T17:31:17.387Z,8.60
2022-10-22T17:33:44.723Z,8.02
2022-10-22T17:36:13.605Z,7.97
2022-10-22T17:38:41.816Z,8.98
2022-10-22T17:41:12.549Z,9.82
2022-10-22T17:43:41.543Z,8.70
2022-10-22T17:46:11.213Z,5.50
2022-10-22T17:48:37.986Z,5.88
2022-10-22T17:51:09.137Z,6.88
2022-10-22T17:53:38.202Z,5.82
2022-10-22T17:56:10.224Z,6.33
2022-10-22T17:58:37.544Z,6.15
2022-10-22T18:01:05.837Z,3.40
2022-10-22T18:03:33.820Z,3.65
2022-10-22T18:06:10.635Z,4.88
2022-10-22T18:08:37.757Z,13.90
2022-10-22T18:11:19.196Z,12.75
2022-10-22T18:13:49.833Z,9.05
2022-10-22T18:16:17.867Z,8.15
2022-10-22T18:18:53.328Z,9.35
2022-10-22T18:21:21.554Z,13.80
2022-10-22T18:23:48.670Z,14.50
2022-10-22T18:26:17.914Z,16.48
2022-10-22T18:28:46.397Z,13.18
2022-10-22T18:31:17.568Z,18.08
2022-10-22T18:33:44.322Z,16.63
2022-10-22T18:36:13.293Z,18.90
2022-10-22T18:38:40.152Z,20.85
2022-10-22T18:41:09.036Z,18.25
2022-10-22T18:43:36.769Z,10.05
2022-10-22T18:46:07.117Z,6.37
2022-10-22T18:48:35.892Z,7.45
2022-10-22T18:51:08.114Z,7.78
2022-10-22T18:53:36.507Z,8.32
2022-10-22T18:56:07.687Z,8.73
2022-10-22T18:58:45.949Z,7.20
2022-10-22T19:01:14.945Z,27.25
2022-10-22T19:03:41.842Z,49.00
2022-10-22T19:06:08.791Z,61.88
2022-10-22T19:08:37.078Z,67.70
2022-10-22T19:11:10.088Z,65.97
2022-10-22T19:13:37.255Z,71.82
2022-10-22T19:16:05.759Z,68.65
2022-10-22T19:18:32.728Z,69.15
2022-10-22T19:21:01.680Z,43.92
2022-10-22T19:23:30.559Z,27.90
2022-10-22T19:26:10.845Z,15.35
2022-10-22T19:28:39.300Z,10.82
2022-10-22T19:31:08.400Z,6.15
2022-10-22T19:33:36.644Z,4.53
2022-10-22T19:36:07.696Z,4.13
2022-10-22T19:38:35.672Z,3.75
2022-10-22T19:41:02.405Z,9.77
2022-10-22T19:43:29.257Z,8.25
2022-10-22T19:45:56.191Z,8.27
2022-10-22T19:48:22.943Z,5.83
2022-10-22T19:50:51.016Z,8.65
2022-10-22T19:53:17.841Z,4.28
2022-10-22T19:55:45.403Z,7.50
2022-10-22T19:58:13.108Z,5.53
2022-10-22T20:00:39.913Z,6.50
2022-10-22T20:03:06.709Z,6.30
2022-10-22T20:05:34.100Z,5.68
2022-10-22T20:08:00.918Z,7.10
2022-10-22T20:10:27.833Z,6.18
2022-10-22T20:12:54.662Z,6.27
2022-10-22T20:15:21.604Z,4.45
2022-10-22T20:17:48.545Z,8.73
2022-10-22T20:20:15.389Z,8.95
2022-10-22T20:22:43.359Z,6.20
2022-10-22T20:25:12.115Z,7.83
2022-10-22T20:27:39.336Z,9.95
2022-10-22T20:30:06.804Z,10.55
2022-10-22T20:32:37.349Z,10.07
2022-10-22T20:35:06.353Z,13.57
2022-10-22T20:37:33.820Z,10.70
2022-10-22T20:40:00.616Z,13.00
2022-10-22T20:42:27.326Z,10.93
2022-10-22T20:44:54.035Z,10.77
2022-10-22T20:47:20.763Z,10.10
2022-10-22T20:49:47.562Z,9.57
2022-10-22T20:52:14.309Z,12.30
2022-10-22T20:54:44.084Z,11.60
2022-10-22T20:57:12.088Z,18.52
2022-10-22T20:59:39.100Z,13.88
2022-10-22T21:02:08.460Z,13.23
2022-10-22T21:04:35.267Z,8.55
2022-10-22T21:07:02.024Z,8.65
2022-10-22T21:09:28.788Z,8.10
2022-10-22T21:11:55.587Z,10.43
2022-10-22T21:14:23.377Z,15.37
2022-10-22T21:16:51.209Z,15.40
2022-10-22T21:19:19.565Z,9.35
2022-10-22T21:21:46.351Z,11.00
2022-10-22T21:24:13.210Z,11.35
2022-10-22T21:26:43.626Z,11.37
2022-10-22T21:29:12.163Z,11.35
2022-10-22T21:31:40.357Z,9.23
2022-10-22T21:34:07.307Z,9.10
2022-10-22T21:36:34.287Z,6.82
2022-10-22T21:39:01.452Z,9.00
2022-10-22T21:41:28.307Z,8.15
2022-10-22T21:43:54.987Z,6.63
2022-10-22T21:46:24.899Z,8.90
2022-10-22T21:48:56.543Z,7.30
2022-10-22T21:51:25.303Z,10.27
2022-10-22T21:56:26.526Z,7.43
2022-10-22T21:58:53.985Z,6.47
2022-10-22T22:01:20.916Z,7.47
2022-10-22T22:03:52.460Z,10.33
2022-10-22T22:06:22.260Z,8.77
2022-10-22T22:08:51.046Z,10.57
2022-10-22T22:11:20.732Z,8.98
2022-10-22T22:13:48.806Z,10.32
2022-10-22T22:16:22.446Z,10.07
2022-10-22T22:18:52.393Z,12.52
2022-10-22T22:21:20.989Z,7.95
2022-10-22T22:23:49.890Z,5.78
2022-10-22T22:26:21.353Z,6.78
2022-10-22T22:28:49.703Z,7.07
2022-10-22T22:31:23.911Z,8.90
2022-10-22T22:33:51.971Z,8.45
2022-10-22T22:36:18.825Z,6.63
2022-10-22T22:38:45.558Z,8.93
2022-10-22T22:41:12.256Z,7.03
2022-10-22T22:43:39.050Z,5.20
2022-10-22T22:46:12.484Z,5.15
2022-10-22T22:48:39.300Z,7.15
2022-10-22T22:51:06.728Z,5.10
2022-10-22T22:53:34.851Z,6.20
2022-10-22T22:56:17.077Z,8.93
2022-10-22T22:58:44.846Z,7.72
2022-10-22T23:01:45.391Z,7.38
2022-10-22T23:04:16.284Z,7.43
2022-10-22T23:06:43.180Z,7.70
2022-10-22T23:09:12.636Z,6.68
2022-10-22T23:11:40.849Z,6.18
2022-10-22T23:14:10.270Z,6.35
2022-10-22T23:16:40.235Z,8.43
2022-10-22T23:19:07.530Z,8.00
2022-10-22T23:21:37.794Z,10.10
2022-10-22T23:24:11.167Z,9.18
2022-10-22T23:26:44.476Z,10.15
2022-10-22T23:29:14.668Z,11.95
2022-10-22T23:31:42.623Z,12.27
2022-10-22T23:34:11.605Z,10.07
2022-10-22T23:36:39.295Z,16.00
2022-10-22T23:39:10.189Z,12.18
2022-10-22T23:41:37.806Z,10.00
2022-10-22T23:44:05.608Z,8.77
2022-10-22T23:46:33.471Z,10.38
2022-10-22T23:49:00.874Z,9.88
2022-10-22T23:51:28.306Z,8.35
2022-10-22T23:53:58.072Z,7.22
2022-10-22T23:56:25.487Z,7.53
2022-10-22T23:58:53.091Z,6.22
